Time;durP1;ratioP1;P1;durP2;ratioP2;P2;SDS_P1;SDS_P2;PMS_P1;PMS_P2;Temp;Humidity;BMP_temperature;BMP_pressure;BME280_temperature;BME280_humidity;BME280_pressure;Samples;Min_cycle;Max_cycle;Signal;HPM_P1;HPM_P2
2021/03/19 00:01:00;;;;;;;8.27;3.30;;;;;;;-2.29;62.99;102125.69;5067173;28;20508;-66
2021/03/19 00:03:28;;;;;;;0.67;0.50;;;;;;;-2.35;62.91;102108.09;5071712;28;20200;-66
2021/03/19 00:05:56;;;;;;;0.63;0.20;;;;;;;-2.17;63.00;102130.13;5072121;28;20284;-66
2021/03/19 00:08:24;;;;;;;0.93;0.70;;;;;;;-2.19;62.50;102130.13;5070764;28;20500;-66
2021/03/19 00:10:51;;;;;;;0.53;0.17;;;;;;;-2.24;63.57;102142.38;5071127;28;20225;-66
2021/03/19 00:13:18;;;;;;;4.90;0.27;;;;;;;-2.53;63.24;102105.31;5051731;28;20655;-66
2021/03/19 00:15:46;;;;;;;1.57;1.40;;;;;;;-2.25;63.38;102154.66;5063797;28;20221;-66
2021/03/19 00:18:13;;;;;;;0.37;0.30;;;;;;;-2.19;63.32;102156.44;5056268;28;20200;-66
2021/03/19 00:20:43;;;;;;;1.47;0.60;;;;;;;-2.29;63.81;102166.00;5071990;28;20201;-67
2021/03/19 00:23:12;;;;;;;1.27;0.50;;;;;;;-2.27;63.70;102164.28;5071225;28;20300;-66
2021/03/19 00:25:40;;;;;;;0.40;0.40;;;;;;;-2.31;63.49;102165.13;5069859;28;20208;-65
2021/03/19 00:28:13;;;;;;;0.50;0.50;;;;;;;-2.26;63.28;102178.31;5051179;28;20240;-66
2021/03/19 00:30:41;;;;;;;0.50;0.50;;;;;;;-2.28;63.45;102180.03;5057805;28;20734;-67
2021/03/19 00:33:08;;;;;;;0.90;0.40;;;;;;;-2.30;63.67;102180.03;5065207;28;20201;-66
2021/03/19 00:35:36;;;;;;;0.50;0.43;;;;;;;-2.33;63.97;102177.38;5051510;28;20221;-66
2021/03/19 00:38:04;;;;;;;0.47;0.30;;;;;;;-2.35;64.43;102176.50;5068187;28;20208;-66
2021/03/19 00:40:36;;;;;;;1.43;1.20;;;;;;;-2.21;63.69;102181.84;5065581;28;20208;-66
2021/03/19 00:43:03;;;;;;;0.43;0.33;;;;;;;-2.29;63.81;102187.06;5062413;28;20200;-66
2021/03/19 00:45:30;;;;;;;0.37;0.30;;;;;;;-2.40;64.01;102191.34;5068398;28;20697;-66
2021/03/19 00:47:58;;;;;;;0.20;0.20;;;;;;;-2.44;64.77;102186.06;5060048;28;20660;-66
2021/03/19 00:50:28;;;;;;;0.30;0.30;;;;;;;-2.83;63.81;102135.75;5070250;28;20208;-67
2021/03/19 00:52:56;;;;;;;4.50;0.50;;;;;;;-2.44;63.94;102199.22;5071007;28;20652;-66
2021/03/19 00:55:24;;;;;;;0.50;0.50;;;;;;;-2.49;63.71;102199.13;5057787;28;20268;-66
2021/03/19 00:57:52;;;;;;;0.17;0.17;;;;;;;-2.73;64.19;102183.16;5069575;28;20185;-66
2021/03/19 01:00:21;;;;;;;1.60;0.47;;;;;;;-2.63;64.41;102201.66;5071066;28;20556;-66
2021/03/19 01:02:48;;;;;;;0.10;0.10;;;;;;;-2.60;64.09;102212.19;5070615;28;20279;-66
2021/03/19 01:05:19;;;;;;;0.20;0.20;;;;;;;-2.66;63.77;102180.59;5069658;28;20687;-67
2021/03/19 01:07:46;;;;;;;0.53;0.20;;;;;;;-2.56;64.06;102213.97;5068989;28;20221;-66
2021/03/19 01:10:16;;;;;;;0.57;0.27;;;;;;;-2.55;64.17;102206.97;5060333;28;20281;-67
2021/03/19 01:12:43;;;;;;;1.97;0.70;;;;;;;-2.50;64.10;102214.03;5053048;28;20202;-66
2021/03/19 01:15:12;;;;;;;1.17;0.30;;;;;;;-2.56;64.22;102215.72;5056491;28;20209;-67
2021/03/19 01:17:40;;;;;;;0.47;0.30;;;;;;;-2.84;63.84;102148.88;5058387;28;20609;-67
2021/03/19 01:20:10;;;;;;;0.40;0.40;;;;;;;-2.53;64.01;102218.38;5050482;28;20783;-67
2021/03/19 01:22:38;;;;;;;0.67;0.30;;;;;;;-2.70;64.30;102205.09;5064522;28;20630;-67
2021/03/19 01:25:07;;;;;;;0.73;0.30;;;;;;;-2.63;64.33;102216.53;5065097;28;20244;-66
2021/03/19 01:27:35;;;;;;;0.63;0.50;;;;;;;-2.52;64.14;102215.78;5062237;28;20236;-67
2021/03/19 01:30:04;;;;;;;0.30;0.30;;;;;;;-2.50;64.01;102224.56;5068839;28;20209;-67
2021/03/19 01:32:32;;;;;;;0.40;0.40;;;;;;;-2.47;64.08;102212.31;5056979;28;20672;-67
2021/03/19 01:35:00;;;;;;;1.80;0.20;;;;;;;-2.47;64.56;102221.06;5059536;28;20213;-66
2021/03/19 01:37:27;;;;;;;0.50;0.50;;;;;;;-2.46;65.20;102214.94;5064256;28;20208;-66
2021/03/19 01:39:54;;;;;;;20.87;14.67;;;;;;;-2.43;64.67;102219.38;5062900;28;20539;-67
2021/03/19 01:42:22;;;;;;;115.30;32.73;;;;;;;-2.45;65.01;102224.59;5071898;28;20239;-67
2021/03/19 01:45:31;;;;;;;4.60;2.10;;;;;;;-2.44;65.18;102223.75;5075708;28;20254;-66
2021/03/19 01:48:37;;;;;;;7.97;0.77;;;;;;;-2.43;65.51;102220.25;5067843;28;20681;-67
2021/03/19 01:51:41;;;;;;;2.23;0.60;;;;;;;-2.37;65.66;102222.06;5076017;28;20275;-66
2021/03/19 01:54:46;;;;;;;2.67;1.73;;;;;;;-2.31;65.73;102220.34;5077029;28;20299;-66
2021/03/19 01:57:50;;;;;;;0.30;0.30;;;;;;;-2.32;65.20;102223.84;5075631;28;20288;-66
2021/03/19 02:00:55;;;;;;;1.20;0.60;;;;;;;-2.36;65.24;102229.97;5061690;28;20890;-67
2021/03/19 02:03:59;;;;;;;0.90;0.77;;;;;;;-2.43;64.90;102237.78;5075536;28;20197;-67
2021/03/19 02:07:00;;;;;;;0.60;0.17;;;;;;;-2.52;64.96;102243.81;5063563;28;20220;-66
2021/03/19 02:10:04;;;;;;;1.33;0.33;;;;;;;-2.61;65.15;102239.34;5032096;28;20232;-66
2021/03/19 02:13:09;;;;;;;0.20;0.20;;;;;;;-2.61;65.25;102239.34;5062231;28;20561;-66
2021/03/19 02:16:13;;;;;;;3.47;0.47;;;;;;;-2.65;65.44;102244.56;5075406;28;20227;-66
2021/03/19 02:19:18;;;;;;;0.47;0.47;;;;;;;-2.57;65.71;102245.53;5062930;28;20219;-67
2021/03/19 02:22:33;;;;;;;0.80;0.80;;;;;;;-2.59;65.47;102244.63;5075303;28;20668;-66
2021/03/19 02:25:38;;;;;;;0.33;0.33;;;;;;;-2.58;65.31;102246.38;5076428;28;20241;-66
2021/03/19 02:28:43;;;;;;;0.43;0.43;;;;;;;-2.63;65.66;102248.09;5073428;28;20573;-66
2021/03/19 02:31:09;;;;;;;12.27;5.47;;;;;;;-2.62;65.32;102248.09;5075997;28;20685;-67
2021/03/19 02:33:43;;;;;;;0.40;0.30;;;;;;;-2.63;65.40;102248.09;5068184;28;20209;-67
2021/03/19 02:36:11;;;;;;;0.97;0.20;;;;;;;-2.68;65.34;102255.06;5070159;28;20213;-66
2021/03/19 02:38:38;;;;;;;0.23;0.20;;;;;;;-2.76;65.34;102251.44;5074235;28;20196;-67
2021/03/19 02:41:05;;;;;;;1.83;0.30;;;;;;;-2.87;65.50;102244.31;5076990;28;20726;-66
2021/03/19 02:43:33;;;;;;;0.17;0.17;;;;;;;-2.95;65.78;102253.88;5075597;28;20212;-67
2021/03/19 02:46:00;;;;;;;0.63;0.40;;;;;;;-2.99;65.80;102261.69;5076109;28;20217;-67
2021/03/19 02:48:27;;;;;;;0.20;0.20;;;;;;;-3.00;65.75;102260.81;5072652;28;20557;-66
2021/03/19 02:50:56;;;;;;;1.27;0.40;;;;;;;-3.08;65.91;102246.69;5076239;28;20204;-67
2021/03/19 02:53:27;;;;;;;0.17;0.17;;;;;;;-3.14;65.90;102265.00;5071855;28;20201;-67
2021/03/19 02:55:55;;;;;;;0.53;0.43;;;;;;;-3.29;65.86;102243.81;5073026;28;20300;-67
2021/03/19 02:58:22;;;;;;;0.77;0.53;;;;;;;-3.21;66.29;102264.03;5072640;28;20839;-66
2021/03/19 03:00:50;;;;;;;0.30;0.13;;;;;;;-3.21;66.67;102269.28;5066101;28;20209;-67
2021/03/19 03:03:17;;;;;;;0.40;0.33;;;;;;;-3.57;66.50;102216.28;5064577;28;20725;-67
2021/03/19 03:05:45;;;;;;;0.13;0.13;;;;;;;-3.40;66.37;102241.00;5070776;28;20544;-67
2021/03/19 03:08:17;;;;;;;0.27;0.27;;;;;;;-3.27;66.65;102273.59;5071323;28;20281;-67
2021/03/19 03:10:45;;;;;;;0.33;0.30;;;;;;;-3.28;66.67;102277.97;5071052;28;20660;-67
2021/03/19 03:13:13;;;;;;;0.33;0.20;;;;;;;-3.22;66.65;102277.16;5067992;28;20320;-67
2021/03/19 03:15:42;;;;;;;0.93;0.33;;;;;;;-3.27;66.70;102284.97;5061958;28;20248;-66
2021/03/19 03:18:11;;;;;;;0.30;0.30;;;;;;;-3.25;66.56;102277.13;5071661;28;20209;-67
2021/03/19 03:20:44;;;;;;;15.57;8.50;;;;;;;-3.25;66.70;102282.38;5072496;28;20193;-68
2021/03/19 03:23:11;;;;;;;1.53;0.57;;;;;;;-3.35;67.04;102291.00;5070826;28;20197;-67
2021/03/19 03:25:39;;;;;;;1.20;0.80;;;;;;;-3.48;67.87;102298.66;5072372;28;20207;-68
2021/03/19 03:28:06;;;;;;;0.73;0.70;;;;;;;-3.54;68.59;102295.97;5071436;28;20225;-68
2021/03/19 03:30:38;;;;;;;7.00;0.90;;;;;;;-3.44;68.44;102292.59;5072005;28;20202;-67
2021/03/19 03:33:07;;;;;;;0.53;0.43;;;;;;;-3.45;68.42;102293.47;5068173;28;20664;-67
2021/03/19 03:35:34;;;;;;;0.73;0.73;;;;;;;-3.39;68.62;102283.91;5060533;28;20935;-67
2021/03/19 03:38:03;;;;;;;0.20;0.20;;;;;;;-3.46;68.72;102291.69;5069714;28;20575;-67
2021/03/19 03:40:36;;;;;;;3.37;0.50;;;;;;;-3.59;68.37;102289.75;5069664;28;20867;-67
2021/03/19 03:43:04;;;;;;;0.20;0.20;;;;;;;-3.73;68.79;102254.53;5069866;28;20232;-67
2021/03/19 03:45:32;;;;;;;2.63;1.53;;;;;;;-3.86;68.42;102236.84;5062209;28;20556;-68
2021/03/19 03:48:00;;;;;;;3.10;0.57;;;;;;;-3.57;68.00;102295.03;5071792;28;20209;-68
2021/03/19 03:50:31;;;;;;;0.23;0.23;;;;;;;-3.44;67.74;102308.34;5057476;28;20219;-67
2021/03/19 03:53:06;;;;;;;0.23;0.23;;;;;;;-3.52;68.36;102320.50;5070918;28;20204;-68
2021/03/19 03:55:34;;;;;;;0.70;0.70;;;;;;;-3.74;68.54;102313.13;5068907;28;20699;-68
2021/03/19 03:58:01;;;;;;;0.60;0.50;;;;;;;-3.57;68.92;102324.78;5070128;28;20220;-68
2021/03/19 04:00:30;;;;;;;0.23;0.23;;;;;;;-3.69;69.14;102311.47;5070573;28;20200;-68
2021/03/19 04:02:59;;;;;;;0.43;0.40;;;;;;;-3.72;69.52;102337.66;5059018;28;20284;-67
2021/03/19 04:05:29;;;;;;;2.27;1.40;;;;;;;-3.59;69.23;102333.50;5067529;28;20188;-68
2021/03/19 04:07:57;;;;;;;0.40;0.40;;;;;;;-3.54;68.92;102337.97;5063306;28;20206;-68
2021/03/19 04:10:24;;;;;;;0.50;0.50;;;;;;;-3.55;69.15;102346.69;5068272;28;20225;-68
2021/03/19 04:12:52;;;;;;;1.00;0.63;;;;;;;-3.55;68.70;102346.69;5070415;28;20200;-68
2021/03/19 04:15:21;;;;;;;0.07;0.07;;;;;;;-3.58;69.07;102361.53;5065187;28;20252;-68
2021/03/19 04:17:55;;;;;;;0.40;0.40;;;;;;;-3.75;68.79;102337.59;5069512;28;20201;-68
2021/03/19 04:20:23;;;;;;;0.40;0.40;;;;;;;-3.51;68.67;102352.88;5060585;28;20655;-68
2021/03/19 04:22:51;;;;;;;0.83;0.37;;;;;;;-3.59;68.69;102359.75;5068133;28;20200;-68
2021/03/19 04:25:19;;;;;;;3.63;0.83;;;;;;;-3.59;68.66;102368.50;5067987;28;20211;-68
2021/03/19 04:27:51;;;;;;;0.47;0.47;;;;;;;-3.57;68.53;102369.41;5069705;28;20233;-68
2021/03/19 04:30:22;;;;;;;2.73;0.60;;;;;;;-3.68;69.16;102370.97;5070284;28;20613;-68
2021/03/19 04:32:52;;;;;;;0.40;0.40;;;;;;;-3.63;68.73;102369.31;5068641;28;20409;-68
2021/03/19 04:35:21;;;;;;;0.13;0.13;;;;;;;-3.68;68.92;102370.97;5064540;28;20339;-68
2021/03/19 04:37:50;;;;;;;1.43;0.50;;;;;;;-3.67;68.93;102372.75;5069975;28;20220;-68
2021/03/19 04:40:18;;;;;;;0.10;0.10;;;;;;;-3.68;68.69;102376.22;5062823;28;20208;-68
2021/03/19 04:42:47;;;;;;;0.10;0.10;;;;;;;-3.74;68.71;102370.84;5063056;28;20609;-68
2021/03/19 04:45:15;;;;;;;1.13;0.50;;;;;;;-3.83;69.08;102376.84;5069402;28;20703;-68
2021/03/19 04:47:42;;;;;;;0.50;0.40;;;;;;;-3.83;68.91;102368.97;5069740;28;20211;-68
2021/03/19 04:50:13;;;;;;;0.87;0.37;;;;;;;-3.81;69.13;102371.63;5065712;28;20687;-68
2021/03/19 04:52:40;;;;;;;2.73;0.60;;;;;;;-3.78;69.05;102382.16;5061140;28;20252;-68
2021/03/19 04:55:09;;;;;;;0.80;0.20;;;;;;;-3.76;69.13;102380.44;5060553;28;20213;-69
2021/03/19 04:57:37;;;;;;;4.70;0.40;;;;;;;-4.06;69.01;102326.59;5060111;28;20227;-68
2021/03/19 05:00:07;;;;;;;0.33;0.20;;;;;;;-3.71;68.67;102386.66;5065964;28;20435;-68
2021/03/19 05:02:36;;;;;;;0.93;0.20;;;;;;;-3.84;68.75;102364.59;5062598;28;20311;-69
2021/03/19 05:05:07;;;;;;;0.30;0.30;;;;;;;-3.75;68.85;102395.34;5057937;28;20600;-68
2021/03/19 05:07:35;;;;;;;26.97;11.93;;;;;;;-3.70;68.69;102393.66;5053712;28;20303;-69
2021/03/19 05:10:04;;;;;;;0.47;0.47;;;;;;;-3.67;68.60;102395.47;5068853;28;20975;-69
2021/03/19 05:12:31;;;;;;;0.90;0.90;;;;;;;-3.65;69.85;102401.66;5052711;28;20598;-68
2021/03/19 05:14:59;;;;;;;0.87;0.87;;;;;;;-3.59;69.63;102397.38;5059515;28;20232;-68
2021/03/19 05:17:26;;;;;;;1.27;0.87;;;;;;;-3.60;70.60;102397.34;5060135;28;20284;-69
2021/03/19 05:19:53;;;;;;;0.33;0.33;;;;;;;-3.53;70.06;102394.84;5058931;28;20209;-69
2021/03/19 05:22:20;;;;;;;0.30;0.30;;;;;;;-3.50;69.92;102391.41;5053668;28;20217;-69
2021/03/19 05:24:48;;;;;;;1.47;0.53;;;;;;;-3.63;69.93;102369.31;5058124;28;20229;-68
2021/03/19 05:27:15;;;;;;;1.80;1.10;;;;;;;-3.38;69.62;102395.94;5055724;28;20263;-69
2021/03/19 05:29:42;;;;;;;0.33;0.30;;;;;;;-3.25;69.32;102400.56;5061101;28;20270;-69
2021/03/19 05:32:09;;;;;;;0.53;0.40;;;;;;;-3.11;69.44;102399.00;5063185;28;20379;-69
2021/03/19 05:34:37;;;;;;;1.50;0.40;;;;;;;-3.07;69.53;102397.31;5066320;28;20276;-69
2021/03/19 05:37:05;;;;;;;0.63;0.50;;;;;;;-2.94;69.07;102392.28;5063485;28;20198;-68
2021/03/19 05:39:32;;;;;;;1.37;1.27;;;;;;;-2.89;69.29;102395.84;5062608;28;20564;-68
2021/03/19 05:42:00;;;;;;;0.50;0.30;;;;;;;-2.87;68.85;102377.47;5063049;28;21034;-69
2021/03/19 05:44:28;;;;;;;1.37;1.00;;;;;;;-2.62;68.82;102402.34;5050983;28;20254;-68
2021/03/19 05:47:01;;;;;;;0.40;0.40;;;;;;;-2.53;68.39;102402.44;5066065;28;20254;-68
2021/03/19 05:49:30;;;;;;;0.23;0.23;;;;;;;-2.42;68.28;102406.13;5062154;28;20696;-69
2021/03/19 05:51:59;;;;;;;0.23;0.23;;;;;;;-2.41;67.93;102404.38;5063829;28;20670;-69
2021/03/19 05:54:39;;;;;;;0.90;0.70;;;;;;;-2.37;67.72;102409.69;5060428;28;20197;-69
2021/03/19 05:57:17;;;;;;;3.63;0.60;;;;;;;-2.24;67.19;102385.28;5063466;28;20973;-68
2021/03/19 05:59:46;;;;;;;1.03;0.60;;;;;;;-2.10;67.20;102413.50;5060509;28;20269;-68
2021/03/19 06:02:20;;;;;;;0.50;0.50;;;;;;;-2.03;67.36;102420.59;5065514;28;20197;-69
2021/03/19 06:05:10;;;;;;;0.30;0.30;;;;;;;-1.89;66.58;102427.75;5067332;28;20255;-69
2021/03/19 06:07:46;;;;;;;1.77;0.43;;;;;;;-1.75;66.38;102425.28;5066961;28;20247;-70
2021/03/19 06:10:29;;;;;;;0.60;0.60;;;;;;;-1.70;65.59;102420.94;5067716;28;20300;-70
2021/03/19 06:13:18;;;;;;;0.47;0.33;;;;;;;-1.72;66.02;102412.16;5056193;28;20224;-68
2021/03/19 06:15:48;;;;;;;0.30;0.30;;;;;;;-1.83;65.81;102387.47;5059799;28;20213;-68
2021/03/19 06:18:20;;;;;;;0.47;0.43;;;;;;;-1.50;66.03;102417.63;5053099;28;20534;-69
2021/03/19 06:20:59;;;;;;;0.40;0.33;;;;;;;-1.51;64.77;102423.75;5060450;28;20602;-68
2021/03/19 06:23:27;;;;;;;2.37;0.70;;;;;;;-1.51;64.90;102424.63;5051007;28;20206;-68
2021/03/19 06:26:04;;;;;;;2.73;0.60;;;;;;;-1.51;65.03;102427.28;5066416;28;20280;-69
2021/03/19 06:28:35;;;;;;;1.20;0.57;;;;;;;-1.36;64.38;102426.50;5062027;28;20251;-69
2021/03/19 06:31:21;;;;;;;0.37;0.30;;;;;;;-1.46;64.41;102403.59;5063274;28;20201;-69
2021/03/19 06:34:09;;;;;;;0.30;0.30;;;;;;;-1.47;63.97;102396.56;5060446;28;20213;-69
2021/03/19 06:36:58;;;;;;;0.30;0.30;;;;;;;-1.06;63.66;102416.19;5065515;28;20229;-69
2021/03/19 06:39:28;;;;;;;0.23;0.20;;;;;;;-1.03;63.00;102421.50;5067388;28;20304;-71
2021/03/19 06:42:06;;;;;;;4.23;0.50;;;;;;;-0.81;61.92;102426.91;5067315;28;20308;-67
2021/03/19 06:44:38;;;;;;;0.53;0.30;;;;;;;-0.67;62.21;102425.22;5062674;28;20293;-67
2021/03/19 06:47:09;;;;;;;1.37;0.27;;;;;;;-0.50;61.73;102423.56;5071358;28;20221;-66
2021/03/19 06:49:49;;;;;;;0.20;0.20;;;;;;;-0.59;60.29;102418.25;5060289;28;20287;-66
2021/03/19 06:52:23;;;;;;;6.10;0.50;;;;;;;-0.41;59.98;102422.72;5064166;28;20661;-66
2021/03/19 06:54:54;;;;;;;5.90;1.00;;;;;;;-0.27;59.60;102431.59;5065706;28;20304;-66
2021/03/19 06:57:22;;;;;;;1.37;1.10;;;;;;;-0.21;59.36;102430.75;5070202;28;20256;-66
2021/03/19 06:59:53;;;;;;;1.83;0.60;;;;;;;0.05;59.58;102429.06;5057422;28;20262;-66
2021/03/19 07:03:06;;;;;;;1.70;0.70;;;;;;;0.23;58.08;102426.47;5062348;28;20248;-65
2021/03/19 07:06:13;;;;;;;0.50;0.50;;;;;;;0.26;56.77;102429.09;5006618;28;20200;-65
2021/03/19 07:08:46;;;;;;;0.90;0.63;;;;;;;0.28;58.41;102385.06;5075253;28;20297;-66
2021/03/19 07:11:52;;;;;;;1.13;0.50;;;;;;;0.83;57.21;102429.16;5070667;28;20214;-66
2021/03/19 07:14:40;;;;;;;0.50;0.50;;;;;;;0.78;55.56;102434.44;5059191;28;20662;-66
2021/03/19 07:17:19;;;;;;;0.73;0.67;;;;;;;0.85;55.04;102425.63;5060167;28;20220;-66
2021/03/19 07:20:02;;;;;;;0.87;0.70;;;;;;;0.85;55.17;102425.63;5056693;28;20250;-65
2021/03/19 07:22:40;;;;;;;0.50;0.50;;;;;;;1.05;54.68;102425.63;5056631;28;20228;-66
2021/03/19 07:25:19;;;;;;;0.43;0.43;;;;;;;1.04;54.63;102433.56;5066583;28;20551;-66
2021/03/19 07:28:02;;;;;;;0.77;0.50;;;;;;;1.33;55.18;102422.91;5069378;28;20225;-66
2021/03/19 07:30:38;;;;;;;0.50;0.50;;;;;;;1.44;55.48;102421.13;5064898;28;20238;-66
2021/03/19 07:33:36;;;;;;;5.13;3.53;;;;;;;1.60;53.59;102432.53;5060102;28;20214;-68
2021/03/19 07:36:22;;;;;;;0.60;0.60;;;;;;;1.34;52.31;102430.84;5064863;28;20306;-69
2021/03/19 07:39:32;;;;;;;0.73;0.60;;;;;;;1.58;53.94;102439.63;5059827;28;20632;-68
2021/03/19 07:42:19;;;;;;;1.97;0.50;;;;;;;1.72;54.40;102437.78;5059504;28;20674;-66
2021/03/19 07:44:54;;;;;;;0.50;0.50;;;;;;;1.74;51.58;102439.53;5066460;28;20678;-66
2021/03/19 07:47:57;;;;;;;1.13;0.53;;;;;;;1.65;52.49;102444.88;5071374;28;20211;-66
2021/03/19 07:50:42;;;;;;;1.20;0.80;;;;;;;1.66;51.93;102438.69;5069874;28;20202;-66
2021/03/19 07:53:36;;;;;;;0.90;0.77;;;;;;;1.64;52.65;102450.19;5071054;28;20285;-66
2021/03/19 07:56:16;;;;;;;0.40;0.40;;;;;;;1.88;53.67;102449.22;5070212;28;20223;-66
2021/03/19 07:58:51;;;;;;;2.00;1.03;;;;;;;1.87;52.28;102453.63;5063553;28;20207;-66
2021/03/19 08:01:25;;;;;;;0.57;0.40;;;;;;;1.66;52.60;102443.09;5058871;28;20199;-68
2021/03/19 08:04:02;;;;;;;2.53;0.70;;;;;;;1.68;51.41;102447.50;5063773;28;20195;-66
2021/03/19 08:06:37;;;;;;;0.77;0.50;;;;;;;1.68;52.25;102449.28;5068984;28;20193;-67
2021/03/19 08:09:13;;;;;;;0.83;0.50;;;;;;;1.54;52.24;102455.50;5066698;28;20200;-69
2021/03/19 08:11:46;;;;;;;0.50;0.50;;;;;;;1.16;51.90;102458.22;5070734;28;20778;-69
2021/03/19 08:14:54;;;;;;;6.33;0.50;;;;;;;1.08;52.04;102448.53;5058097;28;20201;-69
2021/03/19 08:17:27;;;;;;;0.60;0.60;;;;;;;0.55;52.16;102367.47;5055844;28;20241;-69
2021/03/19 08:20:19;;;;;;;0.77;0.50;;;;;;;1.16;52.37;102457.34;5062564;28;20628;-69
2021/03/19 08:22:55;;;;;;;3.37;0.30;;;;;;;1.35;52.02;102460.84;5070482;28;20299;-69
2021/03/19 08:25:25;;;;;;;1.70;0.73;;;;;;;1.16;51.21;102457.34;5056208;28;20205;-68
2021/03/19 08:27:58;;;;;;;0.30;0.30;;;;;;;1.33;51.35;102460.84;5070458;28;20408;-68
2021/03/19 08:30:40;;;;;;;0.43;0.43;;;;;;;1.30;51.69;102460.84;5070018;28;20652;-69
2021/03/19 08:33:16;;;;;;;1.97;1.03;;;;;;;1.22;50.60;102455.59;5057819;28;20200;-68
2021/03/19 08:35:52;;;;;;;0.20;0.20;;;;;;;1.04;50.43;102455.59;5063538;28;20250;-68
2021/03/19 08:38:28;;;;;;;0.40;0.33;;;;;;;1.23;51.46;102472.34;5056471;28;20684;-68
2021/03/19 08:40:59;;;;;;;0.33;0.33;;;;;;;1.40;51.42;102461.72;5058071;28;20192;-66
2021/03/19 08:43:31;;;;;;;4.23;0.47;;;;;;;1.38;51.05;102464.34;5059438;28;20206;-66
2021/03/19 08:46:09;;;;;;;0.40;0.40;;;;;;;1.37;51.37;102441.44;5055818;28;20558;-66
2021/03/19 08:48:47;;;;;;;0.70;0.23;;;;;;;1.60;50.88;102469.63;5068624;28;20191;-67
2021/03/19 08:51:21;;;;;;;0.77;0.77;;;;;;;1.53;50.91;102464.34;5065684;28;20540;-68
2021/03/19 08:54:22;;;;;;;4.20;0.70;;;;;;;1.44;50.39;102448.47;5063741;28;20776;-68
2021/03/19 08:57:32;;;;;;;2.03;0.40;;;;;;;1.67;50.14;102479.28;4995402;28;20233;-68
2021/03/19 08:59:59;;;;;;;0.30;0.30;;;;;;;1.23;50.20;102477.63;5060504;28;20211;-68
2021/03/19 09:02:49;;;;;;;0.27;0.27;;;;;;;1.39;50.84;102479.34;5069334;28;20199;-68
2021/03/19 09:05:27;;;;;;;0.60;0.37;;;;;;;1.22;50.52;102478.47;5061411;28;20190;-68
2021/03/19 09:08:31;;;;;;;0.77;0.40;;;;;;;1.30;50.66;102492.59;5056703;28;20272;-68
2021/03/19 09:11:11;;;;;;;1.47;0.33;;;;;;;1.31;51.58;102456.44;5057147;28;20202;-68
2021/03/19 09:13:59;;;;;;;2.87;0.50;;;;;;;1.27;49.95;102476.75;5053982;28;20195;-68
2021/03/19 09:16:47;;;;;;;2.27;0.80;;;;;;;1.10;49.87;102481.16;5048995;28;20532;-68
2021/03/19 09:19:40;;;;;;;1.07;0.50;;;;;;;1.14;49.72;102465.28;5051949;28;20223;-68
2021/03/19 09:22:33;;;;;;;849.70;322.23;;;;;;;1.12;49.22;102455.56;5066474;28;20207;-68
2021/03/19 09:25:38;;;;;;;17.00;6.87;;;;;;;1.12;49.13;102460.88;5055000;28;20203;-68
2021/03/19 09:28:18;;;;;;;3.40;0.60;;;;;;;1.34;50.05;102465.25;5061028;28;20239;-68
2021/03/19 09:30:52;;;;;;;0.93;0.93;;;;;;;1.43;48.71;102467.88;5062225;28;20309;-68
2021/03/19 09:34:01;;;;;;;0.53;0.50;;;;;;;1.47;50.70;102466.09;5059024;28;20277;-68
2021/03/19 09:37:16;;;;;;;1.60;0.90;;;;;;;1.56;50.69;102474.03;4987638;28;20243;-68
2021/03/19 09:39:55;;;;;;;0.70;0.70;;;;;;;1.72;50.77;102464.25;5060619;28;20281;-66
2021/03/19 09:42:50;;;;;;;0.93;0.63;;;;;;;1.97;49.57;102465.06;5065507;28;20203;-66
2021/03/19 09:45:42;;;;;;;0.93;0.77;;;;;;;1.97;48.15;102465.94;5059884;28;20192;-67
2021/03/19 09:48:31;;;;;;;0.93;0.67;;;;;;;1.60;48.83;102459.03;5061538;28;20586;-66
2021/03/19 09:51:27;;;;;;;1.60;0.50;;;;;;;1.38;49.51;102416.72;5062906;28;20595;-66
2021/03/19 09:53:55;;;;;;;0.40;0.40;;;;;;;1.57;49.55;102466.97;5053480;28;20272;-66
2021/03/19 09:56:28;;;;;;;3.23;0.90;;;;;;;1.47;49.07;102459.03;5055031;28;20245;-67
2021/03/19 09:58:58;;;;;;;0.77;0.60;;;;;;;1.46;49.37;102459.03;5066288;28;20669;-67
2021/03/19 10:01:34;;;;;;;0.80;0.47;;;;;;;1.43;48.51;102462.56;5054157;28;20713;-66
2021/03/19 10:04:05;;;;;;;3.87;0.77;;;;;;;1.02;47.21;102493.50;5062391;28;20212;-66
2021/03/19 10:06:36;;;;;;;0.80;0.40;;;;;;;0.86;46.47;102468.81;5066700;28;20611;-66
2021/03/19 10:09:18;;;;;;;0.40;0.40;;;;;;;0.84;47.31;102466.16;5062019;28;20200;-66
2021/03/19 10:11:58;;;;;;;1.40;0.40;;;;;;;0.96;47.74;102462.66;5061471;28;20585;-67
2021/03/19 10:14:29;;;;;;;0.30;0.30;;;;;;;1.01;47.98;102458.25;5057243;28;20201;-66
2021/03/19 10:17:13;;;;;;;1.27;0.90;;;;;;;0.98;48.07;102458.25;5057307;28;21531;-67
2021/03/19 10:19:43;;;;;;;0.50;0.50;;;;;;;1.11;48.00;102465.28;5058785;28;20195;-66
2021/03/19 10:22:10;;;;;;;0.70;0.50;;;;;;;1.22;47.38;102468.81;5058052;28;20196;-66
2021/03/19 10:24:37;;;;;;;1.50;0.47;;;;;;;1.39;46.41;102452.88;5063927;28;20207;-66
2021/03/19 10:27:12;;;;;;;1.13;0.43;;;;;;;1.15;46.03;102452.94;5075907;28;20190;-66
2021/03/19 10:29:43;;;;;;;1.07;0.37;;;;;;;1.33;46.19;102466.13;5060642;28;20202;-66
2021/03/19 10:32:13;;;;;;;2.90;0.47;;;;;;;1.46;46.26;102441.38;5057694;28;20266;-66
2021/03/19 10:34:47;;;;;;;2.00;0.30;;;;;;;1.73;46.58;102444.84;5060625;28;20212;-66
2021/03/19 10:37:28;;;;;;;2.40;0.60;;;;;;;1.75;45.16;102432.47;5065778;28;20216;-67
2021/03/19 10:40:01;;;;;;;3.50;0.50;;;;;;;1.82;45.40;102444.78;5062377;28;20547;-67
2021/03/19 10:42:39;;;;;;;1.37;0.50;;;;;;;2.03;46.16;102439.41;5063905;28;20210;-66
2021/03/19 10:45:17;;;;;;;0.20;0.20;;;;;;;2.00;46.51;102428.81;5066176;28;20201;-67
2021/03/19 10:47:50;;;;;;;0.20;0.20;;;;;;;1.90;43.59;102434.19;5062742;28;20944;-66
2021/03/19 10:50:23;;;;;;;0.90;0.60;;;;;;;1.86;45.33;102399.78;5059547;28;20202;-67
2021/03/19 10:52:58;;;;;;;1.40;0.67;;;;;;;2.22;44.52;102447.28;5062328;28;20262;-66
2021/03/19 10:55:31;;;;;;;1.03;0.50;;;;;;;2.03;43.54;102439.41;5061026;28;20245;-65
2021/03/19 10:58:23;;;;;;;0.40;0.40;;;;;;;1.85;44.88;102437.75;5056521;28;20574;-66
2021/03/19 11:00:52;;;;;;;0.23;0.23;;;;;;;1.76;45.09;102428.94;5059344;28;20210;-68
2021/03/19 11:03:38;;;;;;;1.23;0.40;;;;;;;1.94;45.15;102438.59;5056509;28;20281;-68
2021/03/19 11:06:09;;;;;;;0.83;0.40;;;;;;;1.82;42.85;102439.50;5059058;28;20208;-68
2021/03/19 11:08:36;;;;;;;0.30;0.30;;;;;;;1.89;43.16;102435.97;5061841;28;20204;-68
2021/03/19 11:11:04;;;;;;;97.73;49.77;;;;;;;2.05;44.41;102424.38;5062939;28;20208;-67
2021/03/19 11:13:34;;;;;;;1.20;0.60;;;;;;;1.99;44.81;102383.81;5064848;28;20275;-68
2021/03/19 11:16:04;;;;;;;0.50;0.50;;;;;;;2.37;43.94;102413.59;5071530;28;20225;-70
2021/03/19 11:18:37;;;;;;;0.57;0.50;;;;;;;2.49;44.20;102404.69;5070980;28;20212;-68
2021/03/19 11:21:28;;;;;;;0.57;0.57;;;;;;;2.50;42.06;102425.00;5065355;28;20277;-69
2021/03/19 11:24:05;;;;;;;0.73;0.40;;;;;;;2.43;43.72;102420.59;5059480;28;20199;-68
2021/03/19 11:26:35;;;;;;;0.60;0.60;;;;;;;2.63;44.02;102421.34;5056639;28;20236;-68
2021/03/19 11:29:20;;;;;;;0.77;0.60;;;;;;;2.49;44.12;102417.94;5071492;28;20715;-68
2021/03/19 11:32:03;;;;;;;0.47;0.43;;;;;;;2.40;43.92;102424.16;5061389;28;20226;-68
2021/03/19 11:34:38;;;;;;;0.50;0.50;;;;;;;2.35;43.18;102407.41;5064883;28;20245;-68
2021/03/19 11:37:08;;;;;;;1.03;0.63;;;;;;;2.65;44.06;102414.25;5071781;28;20586;-68
2021/03/19 11:39:40;;;;;;;3.20;0.63;;;;;;;2.44;43.62;102425.91;5070150;28;20211;-69
2021/03/19 11:42:12;;;;;;;9.13;0.60;;;;;;;2.15;42.10;102422.59;5059000;28;20650;-68
2021/03/19 11:44:40;;;;;;;0.87;0.50;;;;;;;2.21;43.25;102422.53;5056918;28;20692;-69
2021/03/19 11:47:15;;;;;;;3.90;0.30;;;;;;;2.28;41.66;102418.94;5069943;28;20295;-68
2021/03/19 11:49:43;;;;;;;2.20;0.47;;;;;;;2.39;42.19;102389.72;5071283;28;20210;-68
2021/03/19 11:52:12;;;;;;;0.73;0.37;;;;;;;2.36;39.90;102408.28;5057125;28;20196;-68
2021/03/19 11:54:40;;;;;;;1.97;0.60;;;;;;;2.45;41.16;102403.81;5070899;28;20675;-68
2021/03/19 11:57:09;;;;;;;0.33;0.33;;;;;;;2.30;40.63;102411.88;5066358;28;20216;-68
2021/03/19 11:59:36;;;;;;;1.07;0.67;;;;;;;2.41;42.13;102417.09;5066545;28;20218;-68
2021/03/19 12:02:19;;;;;;;0.50;0.50;;;;;;;2.45;41.80;102413.56;5056688;28;20216;-69
2021/03/19 12:04:46;;;;;;;0.30;0.30;;;;;;;2.56;43.68;102416.09;5060706;28;20274;-69
2021/03/19 12:07:13;;;;;;;0.30;0.30;;;;;;;2.58;42.48;102399.28;5059089;28;20197;-68
2021/03/19 12:09:41;;;;;;;0.70;0.53;;;;;;;2.89;43.62;102412.28;5060344;28;20204;-68